PWSweather.com
Personal Weather Stations
Station Observations
KNCCARY10
Cary Park, Cary, NC 27519

Cary ParkCary, NC 27519

Lat: 35.81, Lon: -78.92

Elevation: 430

Station Type:

http://260servers.net/weather/index.htm

Latest ConditionsUpdated 5:00:00 PM EST Saturday, Feb 23, 2019
Currently Today's Max Today's Min Today's Average
Temperature 42.0°F5.6°C 42.3°F5.7°C 39.5°F4.2°C 40.7°F4.8°C
Dew Point 41.2°F5.1°C 41.8°F5.4°C 38.7°F3.7°C 39.8°F4.3°C
Winds Calm Calm 6.0 mph -9.7 kmh - - 1.0 mph 1.6 kmh
Wind Gusts 2.0 mph3.2 kmh 14.0 mph22.5 kmh - -
Humidity 97% 98% 94% 97%
Pressure 30.25 in1024.4 mb 30.45 in1031.2 mb 30.25 in1024.4 mb -
Precipitation - 0.91 in23.1 mm - -
Hour Temp Dew Point Humidity Winds Wind Gusts Pressure Precip Precip Rate Daily Precip Total
05:00 PM 42.0°F5.6°C 41.2°F5.1°C 97% Calm Calm 2.0 mph3.2 kmh 30.25 in1024.4 mb 0.11 in2.8 mm 0.03 in0.8 mm 0.91 in23.1 mm
04:45 PM 42.0°F5.6°C 41.5°F5.3°C 98% Calm Calm -- 30.25 in1024.4 mb 0.09 in2.3 mm 0.00 in0.0 mm 0.88 in22.4 mm
04:30 PM 42.0°F5.6°C 41.2°F5.1°C 97% Calm Calm -- 30.25 in1024.4 mb 0.09 in2.3 mm 0.00 in0.0 mm 0.88 in22.4 mm
04:15 PM 42.2°F5.7°C 41.4°F5.2°C 97% Calm Calm 2.0 mph3.2 kmh 30.28 in1025.4 mb 0.12 in3.0 mm 0.12 in3.0 mm 0.85 in21.6 mm
04:00 PM 42.2°F5.7°C 41.4°F5.2°C 97% Calm Calm 8.0 mph12.9 kmh 30.27 in1025.1 mb 0.09 in2.3 mm 0.00 in0.0 mm 0.80 in20.3 mm
03:45 PM 42.3°F5.7°C 41.8°F5.4°C 98% Calm Calm 4.0 mph6.4 kmh 30.27 in1025.1 mb 0.09 in2.3 mm 0.00 in0.0 mm 0.79 in20.1 mm
03:30 PM 42.2°F5.7°C 41.4°F5.2°C 97% Calm Calm -- 30.27 in1025.1 mb 0.09 in2.3 mm 0.20 in5.1 mm 0.79 in20.1 mm
03:15 PM 42.1°F5.6°C 41.3°F5.2°C 97% Calm Calm 2.0 mph3.2 kmh 30.27 in1025.1 mb 0.04 in1.0 mm 0.00 in0.0 mm 0.73 in18.5 mm
03:00 PM 42.2°F5.7°C 41.4°F5.2°C 97% Calm Calm 2.0 mph3.2 kmh 30.26 in1024.7 mb 0.10 in2.5 mm 0.00 in0.0 mm 0.71 in18.0 mm
02:45 PM 42.1°F5.6°C 41.3°F5.2°C 97% Calm Calm 6.0 mph9.7 kmh 30.26 in1024.7 mb 0.13 in3.3 mm 0.00 in0.0 mm 0.70 in17.8 mm
02:30 PM 42.2°F5.7°C 41.7°F5.4°C 98% Calm Calm 2.0 mph3.2 kmh 30.27 in1025.1 mb 0.19 in4.8 mm 0.00 in0.0 mm 0.70 in17.8 mm
02:15 PM 42.0°F5.6°C 41.2°F5.1°C 97% Calm Calm 4.0 mph6.4 kmh 30.27 in1025.1 mb 0.19 in4.8 mm 0.28 in7.1 mm 0.68 in17.3 mm
02:00 PM 42.1°F5.6°C 41.3°F5.2°C 97% Calm Calm 2.0 mph3.2 kmh 30.30 in1026.1 mb 0.12 in3.0 mm 0.05 in1.3 mm 0.62 in15.7 mm
01:45 PM 42.1°F5.6°C 41.3°F5.2°C 97% Calm Calm -- 30.29 in1025.7 mb 0.08 in2.0 mm 0.20 in5.1 mm 0.57 in14.5 mm
01:30 PM 42.0°F5.6°C 41.2°F5.1°C 97% Calm Calm 4.0 mph6.4 kmh 30.29 in1025.7 mb 0.03 in0.8 mm 0.00 in0.0 mm 0.52 in13.2 mm
01:15 PM 41.9°F5.5°C 41.1°F5.1°C 97% Calm Calm 8.0 mph12.9 kmh 30.31 in1026.4 mb 0.03 in0.8 mm 0.00 in0.0 mm 0.49 in12.4 mm
01:00 PM 41.9°F5.5°C 41.4°F5.2°C 98% Calm Calm 6.0 mph9.7 kmh 30.31 in1026.4 mb 0.03 in0.8 mm 0.00 in0.0 mm 0.49 in12.4 mm
12:45 PM 41.7°F5.4°C 40.9°F4.9°C 97% Calm Calm 6.0 mph9.7 kmh 30.33 in1027.1 mb 0.06 in1.5 mm 0.08 in2.0 mm 0.49 in12.4 mm
12:30 PM 41.4°F5.2°C 40.6°F4.8°C 97% Calm Calm 2.0 mph3.2 kmh 30.34 in1027.4 mb 0.04 in1.0 mm 0.04 in1.0 mm 0.48 in12.2 mm
12:15 PM 41.3°F5.2°C 40.5°F4.7°C 97% 3.0 mph SW4.8 kmh SW 8.0 mph12.9 kmh 30.35 in1027.8 mb 0.03 in0.8 mm 0.00 in0.0 mm 0.46 in11.7 mm
12:00 PM 41.3°F5.2°C 40.5°F4.7°C 97% Calm Calm 2.0 mph3.2 kmh 30.36 in1028.1 mb 0.08 in2.0 mm 0.00 in0.0 mm 0.46 in11.7 mm
11:45 AM 41.1°F5.1°C 40.3°F4.6°C 97% Calm Calm 2.0 mph3.2 kmh 30.37 in1028.4 mb 0.10 in2.5 mm 0.00 in0.0 mm 0.44 in11.2 mm
11:30 AM 41.1°F5.1°C 40.3°F4.6°C 97% Calm Calm 2.0 mph3.2 kmh 30.38 in1028.8 mb 0.15 in3.8 mm 0.00 in0.0 mm 0.44 in11.2 mm
11:15 AM 40.8°F4.9°C 40.0°F4.4°C 97% 3.0 mph SW4.8 kmh SW 6.0 mph9.7 kmh 30.36 in1028.1 mb 0.19 in4.8 mm 0.16 in4.1 mm 0.43 in10.9 mm
11:00 AM 40.7°F4.8°C 39.9°F4.4°C 97% Calm Calm 6.0 mph9.7 kmh 30.38 in1028.8 mb 0.15 in3.8 mm 0.01 in0.3 mm 0.38 in9.7 mm
10:45 AM 40.6°F4.8°C 39.8°F4.3°C 97% 3.0 mph SW4.8 kmh SW 10.0 mph16.1 kmh 30.38 in1028.8 mb 0.14 in3.6 mm 0.16 in4.1 mm 0.34 in8.6 mm
10:30 AM 40.6°F4.8°C 39.8°F4.3°C 97% Calm Calm 6.0 mph9.7 kmh 30.38 in1028.8 mb 0.10 in2.5 mm 0.12 in3.0 mm 0.29 in7.4 mm
10:15 AM 40.4°F4.7°C 39.6°F4.2°C 97% Calm Calm 6.0 mph9.7 kmh 30.39 in1029.1 mb 0.07 in1.8 mm 0.04 in1.0 mm 0.24 in6.1 mm
10:00 AM 40.2°F4.6°C 39.4°F4.1°C 97% 3.0 mph SW4.8 kmh SW 12.0 mph19.3 kmh 30.39 in1029.1 mb 0.06 in1.5 mm 0.05 in1.3 mm 0.23 in5.8 mm
09:45 AM 40.2°F4.6°C 39.4°F4.1°C 97% Calm Calm 2.0 mph3.2 kmh 30.41 in1029.8 mb 0.02 in0.5 mm 0.00 in0.0 mm 0.20 in5.1 mm
09:30 AM 40.1°F4.5°C 39.3°F4.1°C 97% 3.0 mph SW4.8 kmh SW 14.0 mph22.5 kmh 30.40 in1029.5 mb 0.02 in0.5 mm 0.00 in0.0 mm 0.19 in4.8 mm
09:15 AM 40.0°F4.4°C 39.2°F4.0°C 97% 3.0 mph SW4.8 kmh SW 10.0 mph16.1 kmh 30.40 in1029.5 mb 0.02 in0.5 mm 0.00 in0.0 mm 0.18 in4.6 mm
09:00 AM 40.0°F4.4°C 39.2°F4.0°C 97% 3.0 mph SW4.8 kmh SW 12.0 mph19.3 kmh 30.41 in1029.8 mb 0.03 in0.8 mm 0.00 in0.0 mm 0.18 in4.6 mm
08:45 AM 39.9°F4.4°C 39.1°F3.9°C 97% 6.0 mph SW9.7 kmh SW 12.0 mph19.3 kmh 30.40 in1029.5 mb 0.03 in0.8 mm 0.00 in0.0 mm 0.18 in4.6 mm
08:30 AM 40.0°F4.4°C 39.2°F4.0°C 97% Calm Calm 14.0 mph22.5 kmh 30.42 in1030.1 mb 0.07 in1.8 mm 0.00 in0.0 mm 0.16 in4.1 mm
08:15 AM 40.1°F4.5°C 39.3°F4.1°C 97% Calm Calm 10.0 mph16.1 kmh 30.43 in1030.5 mb 0.08 in2.0 mm 0.00 in0.0 mm 0.15 in3.8 mm
08:00 AM 40.2°F4.6°C 39.4°F4.1°C 97% Calm Calm 4.0 mph6.4 kmh 30.42 in1030.1 mb 0.08 in2.0 mm 0.00 in0.0 mm 0.14 in3.6 mm
07:45 AM 40.2°F4.6°C 39.4°F4.1°C 97% Calm Calm 6.0 mph9.7 kmh 30.42 in1030.1 mb 0.09 in2.3 mm 0.12 in3.0 mm 0.14 in3.6 mm
07:30 AM 40.3°F4.6°C 39.5°F4.2°C 97% Calm Calm -- 30.42 in1030.1 mb 0.06 in1.5 mm 0.12 in3.0 mm 0.10 in2.5 mm
07:15 AM 40.1°F4.5°C 39.3°F4.1°C 97% Calm Calm 2.0 mph3.2 kmh 30.41 in1029.8 mb 0.03 in0.8 mm 0.00 in0.0 mm 0.08 in2.0 mm
07:00 AM 40.0°F4.4°C 39.2°F4.0°C 97% 3.0 mph SW4.8 kmh SW 6.0 mph9.7 kmh 30.39 in1029.1 mb 0.03 in0.8 mm 0.01 in0.3 mm 0.07 in1.8 mm
06:45 AM 39.8°F4.3°C 39.0°F3.9°C 97% Calm Calm 2.0 mph3.2 kmh 30.39 in1029.1 mb 0.02 in0.5 mm 0.00 in0.0 mm 0.05 in1.3 mm
06:30 AM 39.7°F4.3°C 38.9°F3.8°C 97% 3.0 mph SW4.8 kmh SW 8.0 mph12.9 kmh 30.39 in1029.1 mb 0.02 in0.5 mm 0.00 in0.0 mm 0.04 in1.0 mm
06:15 AM 39.7°F4.3°C 38.9°F3.8°C 97% Calm Calm 6.0 mph9.7 kmh 30.40 in1029.5 mb 0.02 in0.5 mm 0.04 in1.0 mm 0.04 in1.0 mm
06:00 AM 39.7°F4.3°C 38.9°F3.8°C 97% 3.0 mph SW4.8 kmh SW 10.0 mph16.1 kmh 30.40 in1029.5 mb 0.01 in0.3 mm 0.00 in0.0 mm 0.03 in0.8 mm
05:45 AM 39.7°F4.3°C 38.9°F3.8°C 97% Calm Calm 6.0 mph9.7 kmh 30.40 in1029.5 mb 0.01 in0.3 mm 0.04 in1.0 mm 0.03 in0.8 mm
05:30 AM 39.7°F4.3°C 38.9°F3.8°C 97% Calm Calm 4.0 mph6.4 kmh 30.40 in1029.5 mb 0.00 in0.0 mm 0.00 in0.0 mm 0.02 in0.5 mm
05:15 AM 39.7°F4.3°C 38.9°F3.8°C 97% Calm Calm 6.0 mph9.7 kmh 30.40 in1029.5 mb 0.00 in0.0 mm 0.00 in0.0 mm 0.02 in0.5 mm
05:00 AM 39.7°F4.3°C 38.9°F3.8°C 97% Calm Calm 6.0 mph9.7 kmh 30.40 in1029.5 mb 0.00 in0.0 mm 0.00 in0.0 mm 0.02 in0.5 mm
04:45 AM 39.6°F4.2°C 38.8°F3.8°C 97% Calm Calm 8.0 mph12.9 kmh 30.39 in1029.1 mb 0.00 in0.0 mm 0.00 in0.0 mm 0.02 in0.5 mm
04:30 AM 39.6°F4.2°C 38.8°F3.8°C 97% 3.0 mph SW4.8 kmh SW 8.0 mph12.9 kmh 30.39 in1029.1 mb 0.01 in0.3 mm 0.00 in0.0 mm 0.02 in0.5 mm
04:15 AM 39.7°F4.3°C 38.9°F3.8°C 97% 3.0 mph SW4.8 kmh SW 8.0 mph12.9 kmh 30.40 in1029.5 mb 0.01 in0.3 mm 0.00 in0.0 mm 0.02 in0.5 mm
04:00 AM 39.7°F4.3°C 38.9°F3.8°C 97% Calm Calm 4.0 mph6.4 kmh 30.40 in1029.5 mb 0.01 in0.3 mm 0.00 in0.0 mm 0.02 in0.5 mm
03:45 AM 39.7°F4.3°C 38.9°F3.8°C 97% 3.0 mph SW4.8 kmh SW 8.0 mph12.9 kmh 30.41 in1029.8 mb 0.01 in0.3 mm 0.04 in1.0 mm 0.02 in0.5 mm
03:30 AM 39.7°F4.3°C 38.9°F3.8°C 97% 3.0 mph SW4.8 kmh SW 4.0 mph6.4 kmh 30.42 in1030.1 mb 0.00 in0.0 mm 0.00 in0.0 mm 0.01 in0.3 mm
03:15 AM 39.7°F4.3°C 38.9°F3.8°C 97% Calm Calm 4.0 mph6.4 kmh 30.42 in1030.1 mb 0.00 in0.0 mm 0.00 in0.0 mm 0.01 in0.3 mm
03:00 AM 39.7°F4.3°C 38.9°F3.8°C 97% Calm Calm 4.0 mph6.4 kmh 30.42 in1030.1 mb 0.00 in0.0 mm 0.00 in0.0 mm 0.01 in0.3 mm
02:45 AM 39.7°F4.3°C 38.9°F3.8°C 97% Calm Calm 4.0 mph6.4 kmh 30.42 in1030.1 mb 0.00 in0.0 mm 0.00 in0.0 mm 0.01 in0.3 mm
02:30 AM 39.5°F4.2°C 38.7°F3.7°C 97% 3.0 mph SW4.8 kmh SW 8.0 mph12.9 kmh 30.41 in1029.8 mb 0.00 in0.0 mm 0.00 in0.0 mm 0.01 in0.3 mm
02:15 AM 39.7°F4.3°C 38.9°F3.8°C 97% Calm Calm 6.0 mph9.7 kmh 30.43 in1030.5 mb 0.00 in0.0 mm 0.00 in0.0 mm 0.01 in0.3 mm
02:00 AM 39.9°F4.4°C 39.1°F3.9°C 97% Calm Calm 6.0 mph9.7 kmh 30.43 in1030.5 mb 0.00 in0.0 mm 0.00 in0.0 mm 0.01 in0.3 mm
01:45 AM 40.0°F4.4°C 39.0°F3.9°C 96% Calm Calm 2.0 mph3.2 kmh 30.44 in1030.8 mb 0.00 in0.0 mm 0.00 in0.0 mm 0.01 in0.3 mm
01:30 AM 40.0°F4.4°C 39.0°F3.9°C 96% Calm Calm 4.0 mph6.4 kmh 30.45 in1031.2 mb 0.00 in0.0 mm 0.00 in0.0 mm 0.01 in0.3 mm
01:15 AM 40.2°F4.6°C 38.9°F3.8°C 95% 3.0 mph SW4.8 kmh SW 8.0 mph12.9 kmh 30.45 in1031.2 mb 0.01 in0.3 mm 0.00 in0.0 mm 0.01 in0.3 mm
01:00 AM 40.3°F4.6°C 38.7°F3.7°C 94% 3.0 mph SW4.8 kmh SW 14.0 mph22.5 kmh 30.45 in1031.2 mb 0.01 in0.3 mm 0.00 in0.0 mm 0.01 in0.3 mm
12:45 AM 40.4°F4.7°C 39.1°F3.9°C 95% 6.0 mph SW9.7 kmh SW 10.0 mph16.1 kmh 30.45 in1031.2 mb 0.02 in0.5 mm 0.00 in0.0 mm 0.01 in0.3 mm
12:30 AM 40.6°F4.8°C 39.5°F4.2°C 96% 3.0 mph SW4.8 kmh SW 12.0 mph19.3 kmh 30.45 in1031.2 mb 0.03 in0.8 mm 0.04 in1.0 mm 0.01 in0.3 mm
12:15 AM 40.9°F4.9°C 40.1°F4.5°C 97% Calm Calm 6.0 mph9.7 kmh 30.45 in1031.2 mb 0.02 in0.5 mm 0.00 in0.0 mm 0.03 in0.8 mm
12:00 AM 40.9°F4.9°C 40.1°F4.5°C 97% 3.0 mph WSW4.8 kmh WSW 10.0 mph16.1 kmh 30.45 in1031.2 mb 0.03 in0.8 mm 0.00 in0.0 mm 0.03 in0.8 mm